sensor_id;sensor_type;location;lat;lon;timestamp;pressure;altitude;pressure_sealevel;temperature;humidity
21153;BME280;10734;44.792;20.482;2023-02-01T10:59:38;100383.31;;;7.33;nan
21153;BME280;10734;44.792;20.482;2023-02-01T11:02:31;100378.59;;;7.63;nan
21153;BME280;10734;44.792;20.482;2023-02-01T11:05:09;100371.69;;;8.23;nan
21153;BME280;10734;44.792;20.482;2023-02-01T11:07:39;100361.06;;;8.64;nan
21153;BME280;10734;44.792;20.482;2023-02-01T11:10:40;100352.25;;;9.02;nan
21153;BME280;10734;44.792;20.482;2023-02-01T11:13:17;100349.56;;;9.02;nan
21153;BME280;10734;44.792;20.482;2023-02-01T11:15:46;100342.09;;;9.84;nan
21153;BME280;10734;44.792;20.482;2023-02-01T11:18:25;100340.19;;;10.58;nan
21153;BME280;10734;44.792;20.482;2023-02-01T11:20:53;100334.16;;;10.36;nan
21153;BME280;10734;44.792;20.482;2023-02-01T11:23:24;100326.31;;;11.01;nan
21153;BME280;10734;44.792;20.482;2023-02-01T11:25:59;100325.22;;;10.70;nan
21153;BME280;10734;44.792;20.482;2023-02-01T11:28:31;100328.16;;;10.48;nan
21153;BME280;10734;44.792;20.482;2023-02-01T11:31:03;100321.03;;;10.30;nan
21153;BME280;10734;44.792;20.482;2023-02-01T11:33:34;100317.53;;;11.13;nan
21153;BME280;10734;44.792;20.482;2023-02-01T11:36:12;100305.81;;;10.81;nan
21153;BME280;10734;44.792;20.482;2023-02-01T11:38:53;100314.53;;;11.35;nan
21153;BME280;10734;44.792;20.482;2023-02-01T11:41:21;100318.47;;;11.45;nan
21153;BME280;10734;44.792;20.482;2023-02-01T11:43:56;100311.25;;;11.77;nan
21153;BME280;10734;44.792;20.482;2023-02-01T11:46:32;100306.81;;;11.76;nan
21153;BME280;10734;44.792;20.482;2023-02-01T11:49:24;100303.44;;;11.73;nan
21153;BME280;10734;44.792;20.482;2023-02-01T12:11:29;100271.75;;;11.45;nan
21153;BME280;10734;44.792;20.482;2023-02-01T12:19:46;100252.94;;;11.75;nan
21153;BME280;10734;44.792;20.482;2023-02-01T12:28:12;100241.81;;;9.99;nan
21153;BME280;10734;44.792;20.482;2023-02-01T12:39:32;100241.84;;;10.34;nan
21153;BME280;10734;44.792;20.482;2023-02-01T12:45:01;100220.94;;;11.37;nan
21153;BME280;10734;44.792;20.482;2023-02-01T12:47:33;100227.59;;;11.77;nan
21153;BME280;10734;44.792;20.482;2023-02-01T12:50:41;100239.00;;;11.03;nan
21153;BME280;10734;44.792;20.482;2023-02-01T12:55:50;100230.78;;;11.22;nan
21153;BME280;10734;44.792;20.482;2023-02-01T12:58:31;100224.78;;;11.33;nan
21153;BME280;10734;44.792;20.482;2023-02-01T13:01:08;100213.22;;;11.15;nan
21153;BME280;10734;44.792;20.482;2023-02-01T13:06:19;100212.75;;;11.07;nan
21153;BME280;10734;44.792;20.482;2023-02-01T13:08:51;100205.91;;;11.49;nan
21153;BME280;10734;44.792;20.482;2023-02-01T13:11:27;100208.25;;;12.01;nan
21153;BME280;10734;44.792;20.482;2023-02-01T13:16:48;100197.38;;;12.47;nan
21153;BME280;10734;44.792;20.482;2023-02-01T13:19:20;100194.06;;;13.28;nan
21153;BME280;10734;44.792;20.482;2023-02-01T13:21:58;100193.41;;;13.78;nan
21153;BME280;10734;44.792;20.482;2023-02-01T13:24:37;100197.97;;;13.78;nan
21153;BME280;10734;44.792;20.482;2023-02-01T13:27:05;100202.25;;;13.40;nan
21153;BME280;10734;44.792;20.482;2023-02-01T13:29:33;100196.25;;;13.77;nan
21153;BME280;10734;44.792;20.482;2023-02-01T13:32:14;100195.44;;;14.02;nan
21153;BME280;10734;44.792;20.482;2023-02-01T13:35:03;100181.34;;;14.09;nan
21153;BME280;10734;44.792;20.482;2023-02-01T13:43:10;100179.44;;;15.01;nan
21153;BME280;10734;44.792;20.482;2023-02-01T13:45:43;100186.41;;;14.66;nan
21153;BME280;10734;44.792;20.482;2023-02-01T13:48:20;100180.91;;;14.68;nan
21153;BME280;10734;44.792;20.482;2023-02-01T13:51:00;100170.66;;;14.46;nan
21153;BME280;10734;44.792;20.482;2023-02-01T13:53:31;100172.78;;;14.55;nan
21153;BME280;10734;44.792;20.482;2023-02-01T13:56:06;100175.03;;;13.83;nan
21153;BME280;10734;44.792;20.482;2023-02-01T13:58:37;100174.47;;;13.78;nan
21153;BME280;10734;44.792;20.482;2023-02-01T14:03:59;100158.75;;;13.02;nan
21153;BME280;10734;44.792;20.482;2023-02-01T14:09:33;100147.47;;;12.38;nan
21153;BME280;10734;44.792;20.482;2023-02-01T14:15:25;100114.44;;;11.90;nan
21153;BME280;10734;44.792;20.482;2023-02-01T14:17:52;100112.94;;;12.00;nan
21153;BME280;10734;44.792;20.482;2023-02-01T14:20:42;100111.34;;;11.52;nan
21153;BME280;10734;44.792;20.482;2023-02-01T14:23:16;100095.13;;;10.90;nan
21153;BME280;10734;44.792;20.482;2023-02-01T14:25:44;100094.81;;;10.80;nan
21153;BME280;10734;44.792;20.482;2023-02-01T14:28:21;100094.56;;;10.18;nan
21153;BME280;10734;44.792;20.482;2023-02-01T14:30:49;100089.13;;;10.20;nan
21153;BME280;10734;44.792;20.482;2023-02-01T14:33:22;100088.72;;;9.77;nan
21153;BME280;10734;44.792;20.482;2023-02-01T14:36:00;100089.84;;;9.38;nan
